createdAt,value
2022-08-24T00:01:06.429Z,23.60
2022-08-24T00:06:12.187Z,23.54
2022-08-24T00:11:13.852Z,23.49
2022-08-24T00:16:16.534Z,23.45
2022-08-24T00:21:19.403Z,23.40
2022-08-24T00:26:28.962Z,23.36
2022-08-24T00:31:31.128Z,23.31
2022-08-24T00:36:34.059Z,23.27
2022-08-24T00:41:39.695Z,23.25
2022-08-24T00:46:59.056Z,23.18
2022-08-24T00:52:12.752Z,23.14
2022-08-24T00:57:19.269Z,23.10
2022-08-24T01:02:26.482Z,23.06
2022-08-24T01:07:30.972Z,23.03
2022-08-24T01:12:34.533Z,23.00
2022-08-24T01:17:55.748Z,22.96
2022-08-24T01:23:36.666Z,22.90
2022-08-24T01:28:41.140Z,22.83
2022-08-24T01:33:43.183Z,22.78
2022-08-24T01:38:46.645Z,22.75
2022-08-24T01:43:48.320Z,22.70
2022-08-24T01:48:50.102Z,22.67
2022-08-24T01:53:51.867Z,22.62
2022-08-24T01:58:54.097Z,22.56
2022-08-24T02:03:58.697Z,22.50
2022-08-24T02:09:01.266Z,22.45
2022-08-24T02:14:04.079Z,22.42
2022-08-24T02:19:08.824Z,22.41
2022-08-24T02:24:10.766Z,22.39
2022-08-24T02:29:12.928Z,22.39
2022-08-24T02:34:14.718Z,22.38
2022-08-24T02:39:16.453Z,22.35
2022-08-24T02:44:21.501Z,22.34
2022-08-24T02:49:24.026Z,22.32
2022-08-24T02:54:25.977Z,22.28
2022-08-24T02:59:27.693Z,22.26
2022-08-24T03:04:29.850Z,22.23
2022-08-24T03:09:31.609Z,22.19
2022-08-24T03:14:35.612Z,22.14
2022-08-24T03:19:37.438Z,22.11
2022-08-24T03:24:41.306Z,22.05
2022-08-24T03:29:43.069Z,22.01
2022-08-24T03:34:45.893Z,21.97
2022-08-24T03:39:48.318Z,21.94
2022-08-24T03:44:50.114Z,21.89
2022-08-24T03:49:53.802Z,21.86
2022-08-24T03:54:55.695Z,21.83
2022-08-24T03:59:57.709Z,21.80
2022-08-24T04:04:59.638Z,21.76
2022-08-24T04:10:01.848Z,21.71
2022-08-24T04:15:05.133Z,21.65
2022-08-24T04:20:07.894Z,21.61
2022-08-24T04:25:13.591Z,21.55
2022-08-24T04:30:15.278Z,21.52
2022-08-24T04:35:41.201Z,21.50
2022-08-24T04:40:45.379Z,21.49
2022-08-24T04:45:50.540Z,21.48
2022-08-24T04:50:53.760Z,21.48
2022-08-24T04:55:55.444Z,21.49
2022-08-24T05:00:57.422Z,21.50
2022-08-24T05:05:59.761Z,21.51
2022-08-24T05:11:07.492Z,21.53
2022-08-24T05:16:12.773Z,21.57
2022-08-24T05:21:19.324Z,21.59
2022-08-24T05:26:26.322Z,21.62
2022-08-24T05:31:31.499Z,21.66
2022-08-24T05:36:38.811Z,21.69
2022-08-24T05:41:44.595Z,21.76
2022-08-24T05:46:58.440Z,21.81
2022-08-24T05:52:00.273Z,21.88
2022-08-24T05:57:04.638Z,21.95
2022-08-24T06:02:11.663Z,22.02
2022-08-24T06:07:14.553Z,22.08
2022-08-24T06:12:20.958Z,22.17
2022-08-24T06:17:23.254Z,22.25
2022-08-24T06:22:26.515Z,22.33
2022-08-24T06:27:29.507Z,22.40
2022-08-24T06:32:33.336Z,22.48
2022-08-24T06:37:35.276Z,22.54
2022-08-24T06:42:37.288Z,22.58
2022-08-24T06:47:50.887Z,22.60
2022-08-24T06:52:54.067Z,22.66
2022-08-24T06:57:55.784Z,22.71
2022-08-24T07:02:57.513Z,22.79
2022-08-24T07:07:59.845Z,22.87
2022-08-24T07:13:01.653Z,22.96
2022-08-24T07:18:03.527Z,23.02
2022-08-24T07:23:06.400Z,23.12
2022-08-24T07:28:10.218Z,23.21
2022-08-24T07:33:14.830Z,23.29
2022-08-24T07:38:16.694Z,23.38
2022-08-24T07:43:18.530Z,23.46
2022-08-24T07:48:20.251Z,23.56
2022-08-24T07:53:27.858Z,23.64
2022-08-24T07:58:35.533Z,23.70
2022-08-24T08:03:38.264Z,23.76
2022-08-24T08:08:41.505Z,23.86
2022-08-24T08:18:56.525Z,24.07
2022-08-24T08:24:20.682Z,24.15
2022-08-24T08:29:31.529Z,24.27
2022-08-24T08:34:33.605Z,24.40
2022-08-24T08:39:35.688Z,24.53
2022-08-24T08:45:00.427Z,24.67
2022-08-24T08:50:25.854Z,24.77
2022-08-24T08:55:32.607Z,24.85
2022-08-24T09:00:50.440Z,24.86
2022-08-24T09:06:35.330Z,24.89
2022-08-24T09:11:52.208Z,24.95
2022-08-24T09:17:20.337Z,25.07
2022-08-24T09:22:22.141Z,25.16
2022-08-24T09:27:33.036Z,25.24
2022-08-24T09:33:06.434Z,25.34
2022-08-24T09:38:35.509Z,25.43
2022-08-24T09:43:58.360Z,25.51
2022-08-24T09:49:33.488Z,25.59
2022-08-24T09:55:04.908Z,25.67
2022-08-24T10:00:17.111Z,25.77
2022-08-24T10:05:33.494Z,25.85
2022-08-24T10:10:58.934Z,25.97
2022-08-24T10:16:17.083Z,26.07
2022-08-24T10:21:40.062Z,26.16
2022-08-24T10:26:57.038Z,26.30
2022-08-24T10:32:17.542Z,26.48
2022-08-24T10:38:23.109Z,26.67
2022-08-24T10:43:53.418Z,26.83
2022-08-24T10:49:11.495Z,26.93
2022-08-24T10:54:19.548Z,26.98
2022-08-24T11:00:01.891Z,27.00
2022-08-24T11:05:09.367Z,27.02
2022-08-24T11:10:24.043Z,26.95
2022-08-24T11:15:29.657Z,26.87
2022-08-24T11:20:40.634Z,26.98
2022-08-24T11:25:53.355Z,27.21
2022-08-24T11:30:55.087Z,27.33
2022-08-24T11:35:57.988Z,27.36
2022-08-24T11:41:14.625Z,27.26
2022-08-24T11:46:52.165Z,27.26
2022-08-24T11:52:38.356Z,27.22
2022-08-24T11:57:55.185Z,27.21
2022-08-24T12:03:25.011Z,27.22
2022-08-24T12:08:44.800Z,27.23
2022-08-24T12:13:57.338Z,27.26
2022-08-24T12:19:11.833Z,27.29
2022-08-24T12:24:41.298Z,27.33
2022-08-24T12:29:48.294Z,27.37
2022-08-24T12:35:01.491Z,27.43
2022-08-24T12:40:08.761Z,27.49
2022-08-24T12:45:17.159Z,27.56
2022-08-24T12:50:33.930Z,27.65
2022-08-24T12:56:04.100Z,27.76
2022-08-24T13:01:07.173Z,27.90
2022-08-24T13:06:16.599Z,28.01
2022-08-24T13:11:24.365Z,28.11
2022-08-24T13:16:44.986Z,28.24
2022-08-24T13:21:57.271Z,28.37
2022-08-24T13:27:18.820Z,28.50
2022-08-24T13:32:35.311Z,28.60
2022-08-24T13:37:38.492Z,28.70
2022-08-24T13:42:46.388Z,28.76
2022-08-24T13:48:04.346Z,28.80
2022-08-24T13:53:35.042Z,28.86
2022-08-24T13:58:56.119Z,29.07
2022-08-24T14:04:26.260Z,29.20
2022-08-24T14:10:01.913Z,29.33
2022-08-24T14:15:21.757Z,29.45
2022-08-24T14:20:41.561Z,29.59
2022-08-24T14:25:44.757Z,29.77
2022-08-24T14:30:47.126Z,29.88
2022-08-24T14:36:14.881Z,29.92
2022-08-24T14:41:34.562Z,29.90
2022-08-24T14:47:04.525Z,29.96
2022-08-24T14:52:26.587Z,30.01
2022-08-24T14:57:56.754Z,30.03
2022-08-24T15:03:15.165Z,30.00
2022-08-24T15:08:33.121Z,30.00
2022-08-24T15:14:05.348Z,29.97
2022-08-24T15:19:27.390Z,29.96
2022-08-24T15:24:52.619Z,30.05
2022-08-24T15:29:56.043Z,30.17
2022-08-24T15:34:58.437Z,30.24
2022-08-24T15:40:01.777Z,30.28
2022-08-24T15:45:04.709Z,30.28
2022-08-24T15:50:19.243Z,30.27
2022-08-24T15:55:26.788Z,30.27
2022-08-24T16:00:55.517Z,30.36
2022-08-24T16:06:18.139Z,30.55
2022-08-24T16:11:27.983Z,30.75
2022-08-24T16:16:34.483Z,30.94
2022-08-24T16:21:51.251Z,30.98
2022-08-24T16:27:05.520Z,30.97
2022-08-24T16:32:23.096Z,30.91
2022-08-24T16:37:32.316Z,30.80
2022-08-24T16:42:34.988Z,30.67
2022-08-24T16:47:36.995Z,30.58
2022-08-24T16:52:38.908Z,30.54
2022-08-24T16:57:40.587Z,30.56
2022-08-24T17:02:42.867Z,30.60
2022-08-24T17:07:45.085Z,30.61
2022-08-24T17:12:47.114Z,30.66
2022-08-24T17:18:00.064Z,30.72
2022-08-24T17:23:02.136Z,30.75
2022-08-24T17:28:04.538Z,30.77
2022-08-24T17:33:06.219Z,30.74
2022-08-24T17:38:08.704Z,30.64
2022-08-24T17:43:10.592Z,30.48
2022-08-24T17:48:20.881Z,30.31
2022-08-24T17:53:22.568Z,30.11
2022-08-24T17:58:24.368Z,29.92
2022-08-24T18:03:26.175Z,29.72
2022-08-24T18:08:27.790Z,29.54
2022-08-24T18:13:29.624Z,29.37
2022-08-24T18:18:31.327Z,29.21
2022-08-24T18:23:33.120Z,29.04
2022-08-24T18:28:36.916Z,28.89
2022-08-24T18:33:38.581Z,28.73
2022-08-24T18:38:40.776Z,28.57
2022-08-24T18:43:42.670Z,28.42
2022-08-24T18:48:44.228Z,28.27
2022-08-24T18:53:46.391Z,28.14
2022-08-24T18:58:48.254Z,28.00
2022-08-24T19:03:50.465Z,27.85
2022-08-24T19:08:52.202Z,27.71
2022-08-24T19:13:53.856Z,27.58
2022-08-24T19:18:55.609Z,27.47
2022-08-24T19:23:58.530Z,27.35
2022-08-24T19:29:00.394Z,27.24
2022-08-24T19:34:03.446Z,27.15
2022-08-24T19:39:05.693Z,27.03
2022-08-24T19:44:27.562Z,26.94
2022-08-24T19:49:29.891Z,26.83
2022-08-24T19:54:35.749Z,26.73
2022-08-24T19:59:43.832Z,26.65
2022-08-24T20:04:45.617Z,26.52
2022-08-24T20:09:47.210Z,26.47
2022-08-24T20:14:49.087Z,26.39
2022-08-24T20:19:51.496Z,26.31
2022-08-24T20:24:53.562Z,26.25
2022-08-24T20:29:56.034Z,26.19
2022-08-24T20:34:58.064Z,26.11
2022-08-24T20:40:00.629Z,26.04
2022-08-24T20:45:02.525Z,25.97
2022-08-24T20:50:04.727Z,25.89
2022-08-24T20:55:06.848Z,25.80
2022-08-24T21:00:11.000Z,25.74
2022-08-24T21:05:13.191Z,25.66
2022-08-24T21:10:19.679Z,25.59
2022-08-24T21:15:23.591Z,25.52
2022-08-24T21:20:25.750Z,25.43
2022-08-24T21:25:27.578Z,25.37
2022-08-24T21:30:30.407Z,25.32
2022-08-24T21:35:32.639Z,25.27
2022-08-24T21:40:35.628Z,25.22
2022-08-24T21:45:37.452Z,25.19
2022-08-24T21:50:39.095Z,25.14
2022-08-24T21:55:41.912Z,25.10
2022-08-24T22:00:44.081Z,25.07
2022-08-24T22:05:45.856Z,25.03
2022-08-24T22:10:48.956Z,25.00
2022-08-24T22:15:50.747Z,24.96
2022-08-24T22:20:52.619Z,24.92
2022-08-24T22:25:54.566Z,24.88
2022-08-24T22:30:56.804Z,24.85
2022-08-24T22:35:58.627Z,24.80
2022-08-24T22:41:00.207Z,24.74
2022-08-24T22:46:01.846Z,24.69
2022-08-24T22:51:08.224Z,24.63
2022-08-24T22:56:27.674Z,24.57
2022-08-24T23:01:37.415Z,24.51
2022-08-24T23:06:39.389Z,24.46
2022-08-24T23:11:41.349Z,24.42
2022-08-24T23:16:45.092Z,24.38
2022-08-24T23:21:46.926Z,24.32
2022-08-24T23:26:49.445Z,24.28
2022-08-24T23:31:53.685Z,24.24
2022-08-24T23:36:55.789Z,24.19
2022-08-24T23:41:57.926Z,24.12
2022-08-24T23:47:00.500Z,24.08
2022-08-24T23:52:02.313Z,24.01
2022-08-24T23:57:09.053Z,23.96
